Terminal Aerodrome Forecast
Issued by NWS Jackson, MS

Home | Current Version | Previous Version | Text Only | Print | Product List | Glossary On
Versions: 1 2 3 4 5 6 7 8 9 10 11 12 13
825
FTUS44 KJAN 230532
TAFGWO
TAF
KGWO 230532Z 2306/2406 17015G23KT P6SM VCSH SCT025 BKN090
     FM230800 18015G24KT 6SM SHRA BKN015 BKN090
     FM231300 19017G25KT 4SM SHRA VCTS BKN015CB OVC050
     FM232000 22011KT 6SM -TSRA BKN025CB OVC050=

USA.gov is the U.S. government's official web portal to all federal, state and local government web resources and services.